createdAt,value
2022-09-04T00:01:01.281Z,98676.47
2022-09-04T00:05:56.849Z,98665.56
2022-09-04T00:11:01.574Z,98663.38
2022-09-04T00:16:05.319Z,98674.06
2022-09-04T00:21:39.916Z,98672.72
2022-09-04T00:26:50.339Z,98683.09
2022-09-04T00:31:49.545Z,98676.84
2022-09-04T00:36:50.071Z,98676.56
2022-09-04T00:41:59.837Z,98685.34
2022-09-04T00:47:25.748Z,98681.53
2022-09-04T00:53:02.467Z,98687.84
2022-09-04T00:58:00.469Z,98684.00
2022-09-04T01:03:07.275Z,98692.50
2022-09-04T01:08:07.635Z,98683.22
2022-09-04T01:13:24.430Z,98678.31
2022-09-04T01:18:29.791Z,98685.44
2022-09-04T01:23:45.124Z,98688.16
2022-09-04T01:28:55.202Z,98691.44
2022-09-04T01:34:05.133Z,98685.69
2022-09-04T01:38:58.561Z,98683.78
2022-09-04T01:43:51.853Z,98678.03
2022-09-04T01:48:55.724Z,98687.59
2022-09-04T01:54:03.895Z,98682.13
2022-09-04T01:59:01.277Z,98688.72
2022-09-04T02:03:56.229Z,98675.56
2022-09-04T02:09:15.946Z,98688.72
2022-09-04T02:14:09.350Z,98691.16
2022-09-04T02:19:25.208Z,98679.97
2022-09-04T02:24:35.189Z,98694.72
2022-09-04T02:29:50.046Z,98689.81
2022-09-04T02:35:16.993Z,98684.63
2022-09-04T02:40:11.995Z,98680.81
2022-09-04T02:45:34.296Z,98678.88
2022-09-04T02:51:04.818Z,98675.06
2022-09-04T02:56:16.579Z,98666.03
2022-09-04T03:01:24.826Z,98664.66
2022-09-04T03:06:29.204Z,98664.09
2022-09-04T03:11:39.114Z,98663.81
2022-09-04T03:16:55.676Z,98659.72
2022-09-04T03:22:12.345Z,98658.34
2022-09-04T03:27:10.689Z,98663.81
2022-09-04T03:32:15.476Z,98671.44
2022-09-04T03:37:20.861Z,98653.13
2022-09-04T03:42:28.408Z,98647.91
2022-09-04T03:47:28.870Z,98649.84
2022-09-04T03:52:51.160Z,98640.00
2022-09-04T03:57:42.705Z,98640.28
2022-09-04T04:03:15.529Z,98640.84
2022-09-04T04:08:27.521Z,98651.25
2022-09-04T04:13:33.391Z,98652.34
2022-09-04T04:18:53.762Z,98643.59
2022-09-04T04:24:39.098Z,98657.00
2022-09-04T04:30:17.375Z,98642.50
2022-09-04T04:35:29.417Z,98637.84
2022-09-04T04:40:20.976Z,98654.78
2022-09-04T04:45:50.984Z,98641.38
2022-09-04T04:51:00.952Z,98641.94
2022-09-04T04:56:36.441Z,98642.72
2022-09-04T05:01:34.414Z,98640.28
2022-09-04T05:06:37.000Z,98656.41
2022-09-04T05:11:39.911Z,98666.81
2022-09-04T05:17:00.080Z,98667.88
2022-09-04T05:22:33.583Z,98682.13
2022-09-04T05:27:41.673Z,98675.53
2022-09-04T05:32:35.877Z,98672.50
2022-09-04T05:37:46.212Z,98684.81
2022-09-04T05:42:56.879Z,98679.34
2022-09-04T05:48:07.307Z,98688.91
2022-09-04T05:53:26.130Z,98693.00
2022-09-04T05:58:40.592Z,98699.31
2022-09-04T06:03:55.318Z,98692.44
2022-09-04T06:09:31.589Z,98696.25
2022-09-04T06:14:31.892Z,98712.41
2022-09-04T06:19:54.440Z,98700.88
2022-09-04T06:25:04.825Z,98717.28
2022-09-04T06:30:14.561Z,98708.50
2022-09-04T06:35:25.205Z,98687.41
2022-09-04T06:40:26.045Z,98718.59
2022-09-04T06:45:42.236Z,98714.75
2022-09-04T06:50:49.770Z,98719.38
2022-09-04T06:55:49.799Z,98708.09
2022-09-04T07:00:53.521Z,98719.56
2022-09-04T07:06:08.614Z,98711.59
2022-09-04T07:11:21.054Z,98711.81
2022-09-04T07:16:39.148Z,98717.31
2022-09-04T07:21:40.166Z,98720.31
2022-09-04T07:26:53.358Z,98738.88
2022-09-04T07:32:02.565Z,98747.59
2022-09-04T07:37:25.956Z,98756.84
2022-09-04T07:42:50.867Z,98739.50
2022-09-04T07:48:04.816Z,98755.88
2022-09-04T07:53:24.269Z,98770.84
2022-09-04T07:58:22.049Z,98789.38
2022-09-04T08:03:54.411Z,98803.59
2022-09-04T08:08:49.105Z,98813.69
2022-09-04T08:14:06.384Z,98808.75
2022-09-04T08:19:09.449Z,98811.41
2022-09-04T08:24:21.726Z,98829.50
2022-09-04T08:29:40.244Z,98832.16
2022-09-04T08:34:53.155Z,98834.56
2022-09-04T08:40:24.141Z,98837.00
2022-09-04T08:45:48.302Z,98849.28
2022-09-04T08:51:08.264Z,98850.88
2022-09-04T08:56:18.710Z,98865.09
2022-09-04T09:01:38.520Z,98869.44
2022-09-04T09:06:51.677Z,98874.56
2022-09-04T09:12:09.125Z,98874.47
2022-09-04T09:17:13.237Z,98876.84
2022-09-04T09:22:17.084Z,98886.47
2022-09-04T09:27:11.846Z,98882.13
2022-09-04T09:32:28.971Z,98888.44
2022-09-04T09:37:38.966Z,98891.72
2022-09-04T09:42:50.919Z,98880.38
2022-09-04T09:48:11.501Z,98897.19
2022-09-04T09:53:32.872Z,98895.47
2022-09-04T09:58:33.863Z,98896.59
2022-09-04T10:03:31.888Z,98906.25
2022-09-04T10:08:54.198Z,98906.53
2022-09-04T10:13:45.854Z,98909.28
2022-09-04T10:19:04.865Z,98917.16
2022-09-04T10:24:23.070Z,98927.84
2022-09-04T10:29:29.680Z,98925.81
2022-09-04T10:34:55.482Z,98931.88
2022-09-04T10:40:11.519Z,98918.56
2022-09-04T10:45:41.492Z,98919.13
2022-09-04T10:51:27.438Z,98930.13
2022-09-04T10:56:35.338Z,98949.34
2022-09-04T11:01:41.041Z,98941.09
2022-09-04T11:06:55.478Z,98957.63
2022-09-04T11:12:17.609Z,98957.50
2022-09-04T11:17:28.705Z,98961.44
2022-09-04T11:22:54.946Z,98963.50
2022-09-04T11:28:13.113Z,98971.19
2022-09-04T11:33:37.484Z,98968.84
2022-09-04T11:38:44.162Z,98969.16
2022-09-04T11:48:43.154Z,98971.22
2022-09-04T11:53:37.498Z,98979.47
2022-09-04T11:58:56.562Z,98988.78
2022-09-04T12:04:06.851Z,98983.72
2022-09-04T12:09:26.073Z,98996.31
2022-09-04T12:14:29.189Z,99001.41
2022-09-04T12:20:08.078Z,99004.34
2022-09-04T12:25:33.018Z,99011.72
2022-09-04T12:30:53.315Z,99005.59
2022-09-04T12:36:18.594Z,99003.53
2022-09-04T12:41:28.788Z,98998.63
2022-09-04T12:46:48.779Z,99005.88
2022-09-04T12:51:49.844Z,99011.72
2022-09-04T12:57:00.904Z,99014.09
2022-09-04T13:02:01.812Z,99003.38
2022-09-04T13:07:22.870Z,99008.78
2022-09-04T13:12:48.919Z,99002.81
2022-09-04T13:18:08.354Z,99001.47
2022-09-04T13:23:16.254Z,99015.19
2022-09-04T13:28:35.653Z,99017.34
2022-09-04T13:33:51.294Z,99014.28
2022-09-04T13:39:07.162Z,99012.47
2022-09-04T13:44:05.689Z,99024.69
2022-09-04T13:49:07.198Z,99038.38
2022-09-04T13:54:17.103Z,99030.47
2022-09-04T13:59:16.301Z,99042.00
2022-09-04T14:04:13.306Z,99020.06
2022-09-04T14:09:06.340Z,99038.38
2022-09-04T14:14:12.103Z,99032.56
2022-09-04T14:19:20.208Z,99034.28
2022-09-04T14:24:44.223Z,99009.22
2022-09-04T14:29:44.438Z,99026.81
2022-09-04T14:34:50.214Z,99011.97
2022-09-04T14:39:52.447Z,99002.28
2022-09-04T14:45:01.663Z,99012.31
2022-09-04T14:49:56.327Z,98994.97
2022-09-04T14:54:53.758Z,99013.72
2022-09-04T14:59:57.060Z,98990.25
2022-09-04T15:05:00.124Z,99003.72
2022-09-04T15:09:53.612Z,99014.41
2022-09-04T15:14:50.374Z,99011.19
2022-09-04T15:19:55.182Z,99001.84
2022-09-04T15:24:58.492Z,99000.53
2022-09-04T15:29:53.402Z,98993.06
2022-09-04T15:34:45.115Z,98990.19
2022-09-04T15:39:46.022Z,99000.38
2022-09-04T15:44:47.485Z,99001.22
2022-09-04T15:50:04.530Z,98995.19
2022-09-04T15:55:22.169Z,98998.53
2022-09-04T16:00:20.568Z,98999.97
2022-09-04T16:05:41.584Z,99001.22
2022-09-04T16:10:42.242Z,99002.28
2022-09-04T16:15:45.562Z,99006.91
2022-09-04T16:20:52.876Z,99015.00
2022-09-04T16:25:49.950Z,99016.00
2022-09-04T16:30:59.842Z,99014.00
2022-09-04T16:35:57.908Z,99003.13
2022-09-04T16:40:58.695Z,99004.25
2022-09-04T16:46:07.156Z,99010.41
2022-09-04T16:51:09.870Z,99009.38
2022-09-04T16:56:36.995Z,99011.00
2022-09-04T17:01:46.929Z,99016.00
2022-09-04T17:07:15.889Z,99003.44
2022-09-04T17:12:19.692Z,99020.59
2022-09-04T17:17:31.331Z,99010.78
2022-09-04T17:29:02.595Z,99014.47
2022-09-04T17:29:19.068Z,99010.28
2022-09-04T17:37:18.875Z,99022.03
2022-09-04T17:40:50.436Z,99009.75
2022-09-04T17:44:53.817Z,99014.34
2022-09-04T17:49:55.525Z,99016.66
2022-09-04T17:54:49.383Z,99015.41
2022-09-04T17:59:53.456Z,99013.03
2022-09-04T18:05:24.109Z,99013.13
2022-09-04T18:10:31.333Z,99026.47
2022-09-04T18:15:35.006Z,99018.91
2022-09-04T18:20:52.155Z,99015.09
2022-09-04T18:25:57.939Z,99018.75
2022-09-04T18:37:11.546Z,99021.28
2022-09-04T18:37:23.606Z,99021.66
2022-09-04T18:49:52.769Z,99025.28
2022-09-04T18:50:32.529Z,99021.81
2022-09-04T18:53:06.422Z,99033.78
2022-09-04T18:58:13.593Z,99032.28
2022-09-04T19:03:37.892Z,99040.09
2022-09-04T19:08:38.226Z,99036.03
2022-09-04T19:13:48.880Z,99045.75
2022-09-04T19:18:49.404Z,99048.00
2022-09-04T19:23:50.382Z,99051.13
2022-09-04T19:28:52.508Z,99052.00
2022-09-04T19:34:03.922Z,99051.47
2022-09-04T19:45:57.036Z,99056.22
2022-09-04T19:46:15.506Z,99048.00
2022-09-04T19:53:21.576Z,99054.09
2022-09-04T19:55:24.320Z,99055.25
2022-09-04T20:00:33.753Z,99050.63
2022-09-04T20:05:34.173Z,99056.19
2022-09-04T20:10:59.309Z,99053.22
2022-09-04T20:16:31.137Z,99045.56
2022-09-04T20:21:43.705Z,99043.13
2022-09-04T20:26:48.566Z,99048.41
2022-09-04T20:32:41.532Z,99052.84
2022-09-04T20:37:35.226Z,99043.78
2022-09-04T20:42:43.365Z,99048.22
2022-09-04T20:53:00.038Z,99043.88
2022-09-04T20:53:08.465Z,99036.50
2022-09-04T21:02:37.854Z,99046.13
2022-09-04T21:03:57.084Z,99034.13
2022-09-04T21:09:20.288Z,99043.81
2022-09-04T21:14:43.521Z,99027.06
2022-09-04T21:19:59.107Z,99019.97
2022-09-04T21:24:56.514Z,99022.19
2022-09-04T21:29:59.552Z,99018.38
2022-09-04T21:35:13.262Z,99013.44
2022-09-04T21:40:33.619Z,99013.22
2022-09-04T21:45:44.800Z,99002.00
2022-09-04T21:50:58.734Z,99003.63
2022-09-04T22:02:29.569Z,99006.66
2022-09-04T22:02:40.290Z,98997.09
2022-09-04T22:09:59.127Z,99004.25
2022-09-04T22:13:28.701Z,99006.19
2022-09-04T22:18:00.193Z,98998.81
2022-09-04T22:23:21.653Z,98991.16
2022-09-04T22:28:32.078Z,98984.28
2022-09-04T22:33:29.649Z,98992.56
2022-09-04T22:38:42.269Z,98987.38
2022-09-04T22:43:45.288Z,98974.75
2022-09-04T22:49:15.867Z,98973.38
2022-09-04T22:54:13.269Z,98972.84
2022-09-04T22:59:28.060Z,98970.69
2022-09-04T23:04:28.751Z,98963.81
2022-09-04T23:13:53.397Z,98973.19
2022-09-04T23:15:08.848Z,98953.97
2022-09-04T23:26:32.227Z,98939.13
2022-09-04T23:26:41.675Z,98917.22
2022-09-04T23:31:29.284Z,98926.56
2022-09-04T23:36:29.687Z,98898.06
2022-09-04T23:42:06.647Z,98890.41
2022-09-04T23:47:48.733Z,98891.50
2022-09-04T23:52:52.220Z,98876.16
2022-09-04T23:58:25.639Z,98869.81
